Berea, Arkansas
Current Conditions -  °F | °C
As of 9:15 AM on Wednesday 22 Oct 2014 (Local Time) from KBQP Reporting Station
Clear Clear  
Wind Chill: 62°   Ceiling: Unl
Heat Index: 62°   Visibility: 10mi
Dew Point: 55°   Wind: 5mph
Humidity: 79%   Direction: 60°ENE
Pressure: 30.18"   Gusts: NA
Location:  33.1762°N, 91.7595°W
Report Text: KBQP 221415Z AUTO 06004KT 10SM CLR 16/13 A3018 RMK AO2 T01640127
Loading
Personal Weather Stations






























Interactive Weather Map
Tropical Storm Tracking
New forecast layout! Learn more

10-Day Weather Forecast

Advertisements
Track Severe Weather on mobile